sensor_id;sensor_type;location;lat;lon;timestamp;P1;durP1;ratioP1;P2;durP2;ratioP2
44120;SDS011;29783;52.504;13.478;2023-04-24T01:30:13;3.65;;;3.35;;
44120;SDS011;29783;52.504;13.478;2023-04-24T01:32:38;7.43;;;3.55;;
44120;SDS011;29783;52.504;13.478;2023-04-24T01:35:09;4.25;;;3.80;;
44120;SDS011;29783;52.504;13.478;2023-04-24T01:37:35;4.28;;;3.72;;
44120;SDS011;29783;52.504;13.478;2023-04-24T01:40:21;4.50;;;3.92;;
44120;SDS011;29783;52.504;13.478;2023-04-24T01:42:48;4.40;;;3.92;;
44120;SDS011;29783;52.504;13.478;2023-04-24T01:45:15;4.45;;;3.42;;
44120;SDS011;29783;52.504;13.478;2023-04-24T01:47:41;5.15;;;3.85;;
44120;SDS011;29783;52.504;13.478;2023-04-24T01:50:08;4.53;;;3.22;;
44120;SDS011;29783;52.504;13.478;2023-04-24T01:52:34;4.22;;;3.83;;
44120;SDS011;29783;52.504;13.478;2023-04-24T01:55:02;3.75;;;3.45;;
44120;SDS011;29783;52.504;13.478;2023-04-24T01:57:30;4.82;;;3.88;;
44120;SDS011;29783;52.504;13.478;2023-04-24T01:59:56;4.25;;;3.85;;
44120;SDS011;29783;52.504;13.478;2023-04-24T02:02:22;5.28;;;4.60;;
44120;SDS011;29783;52.504;13.478;2023-04-24T02:04:55;6.00;;;4.30;;
44120;SDS011;29783;52.504;13.478;2023-04-24T02:07:22;5.13;;;4.15;;
44120;SDS011;29783;52.504;13.478;2023-04-24T02:09:49;6.65;;;4.20;;
44120;SDS011;29783;52.504;13.478;2023-04-24T02:12:15;5.07;;;4.57;;
44120;SDS011;29783;52.504;13.478;2023-04-24T02:14:42;6.10;;;4.55;;
44120;SDS011;29783;52.504;13.478;2023-04-24T02:17:08;4.32;;;3.92;;
44120;SDS011;29783;52.504;13.478;2023-04-24T02:19:34;10.07;;;4.60;;
44120;SDS011;29783;52.504;13.478;2023-04-24T02:22:00;9.27;;;4.10;;
44120;SDS011;29783;52.504;13.478;2023-04-24T02:24:26;5.38;;;4.55;;
44120;SDS011;29783;52.504;13.478;2023-04-24T02:26:51;6.38;;;4.93;;
44120;SDS011;29783;52.504;13.478;2023-04-24T02:29:17;6.38;;;4.35;;
44120;SDS011;29783;52.504;13.478;2023-04-24T02:31:43;4.50;;;4.10;;
44120;SDS011;29783;52.504;13.478;2023-04-24T02:34:09;5.28;;;4.35;;
44120;SDS011;29783;52.504;13.478;2023-04-24T02:36:35;6.78;;;4.53;;
44120;SDS011;29783;52.504;13.478;2023-04-24T02:39:00;4.97;;;4.35;;
44120;SDS011;29783;52.504;13.478;2023-04-24T02:41:28;6.18;;;5.13;;
44120;SDS011;29783;52.504;13.478;2023-04-24T03:12:27;5.13;;;4.63;;
44120;SDS011;29783;52.504;13.478;2023-04-24T03:14:53;6.22;;;4.40;;
44120;SDS011;29783;52.504;13.478;2023-04-24T03:17:20;5.70;;;4.63;;
44120;SDS011;29783;52.504;13.478;2023-04-24T03:19:49;5.68;;;4.90;;
44120;SDS011;29783;52.504;13.478;2023-04-24T03:22:15;6.80;;;4.88;;
44120;SDS011;29783;52.504;13.478;2023-04-24T03:24:40;5.28;;;4.53;;
44120;SDS011;29783;52.504;13.478;2023-04-24T03:27:06;6.30;;;4.55;;
44120;SDS011;29783;52.504;13.478;2023-04-24T03:29:33;7.15;;;4.65;;
44120;SDS011;29783;52.504;13.478;2023-04-24T03:31:59;4.32;;;3.92;;
44120;SDS011;29783;52.504;13.478;2023-04-24T03:34:24;7.05;;;4.40;;
44120;SDS011;29783;52.504;13.478;2023-04-24T03:36:50;5.72;;;4.60;;
44120;SDS011;29783;52.504;13.478;2023-04-24T03:39:17;6.10;;;5.00;;
44120;SDS011;29783;52.504;13.478;2023-04-24T03:41:43;6.82;;;4.53;;
44120;SDS011;29783;52.504;13.478;2023-04-24T04:07:28;5.43;;;4.78;;
44120;SDS011;29783;52.504;13.478;2023-04-24T04:09:54;4.53;;;4.13;;
44120;SDS011;29783;52.504;13.478;2023-04-24T04:12:20;7.43;;;4.60;;
44120;SDS011;29783;52.504;13.478;2023-04-24T04:14:46;5.95;;;4.45;;
44120;SDS011;29783;52.504;13.478;2023-04-24T04:17:12;8.50;;;4.10;;
44120;SDS011;29783;52.504;13.478;2023-04-24T04:19:37;5.78;;;4.40;;
44120;SDS011;29783;52.504;13.478;2023-04-24T04:22:03;5.28;;;4.53;;
44120;SDS011;29783;52.504;13.478;2023-04-24T04:24:29;4.95;;;4.22;;
44120;SDS011;29783;52.504;13.478;2023-04-24T04:26:54;4.78;;;4.35;;
44120;SDS011;29783;52.504;13.478;2023-04-24T04:29:23;12.48;;;4.43;;
44120;SDS011;29783;52.504;13.478;2023-04-24T04:31:50;5.45;;;4.32;;
44120;SDS011;29783;52.504;13.478;2023-04-24T04:34:17;6.15;;;4.75;;
44120;SDS011;29783;52.504;13.478;2023-04-24T04:36:44;5.20;;;3.70;;
44120;SDS011;29783;52.504;13.478;2023-04-24T04:39:11;6.53;;;5.03;;
44120;SDS011;29783;52.504;13.478;2023-04-24T04:41:40;4.95;;;4.20;;
44120;SDS011;29783;52.504;13.478;2023-04-24T04:44:07;5.47;;;4.18;;
44120;SDS011;29783;52.504;13.478;2023-04-24T04:46:34;6.97;;;4.22;;
44120;SDS011;29783;52.504;13.478;2023-04-24T04:49:02;4.95;;;3.92;;
44120;SDS011;29783;52.504;13.478;2023-04-24T04:51:28;6.50;;;3.67;;
44120;SDS011;29783;52.504;13.478;2023-04-24T04:53:55;4.35;;;3.95;;
44120;SDS011;29783;52.504;13.478;2023-04-24T04:56:20;5.63;;;3.55;;
44120;SDS011;29783;52.504;13.478;2023-04-24T04:58:47;5.65;;;3.83;;
44120;SDS011;29783;52.504;13.478;2023-04-24T05:01:12;11.30;;;3.55;;
44120;SDS011;29783;52.504;13.478;2023-04-24T05:03:38;5.22;;;3.40;;
44120;SDS011;29783;52.504;13.478;2023-04-24T05:06:05;4.20;;;3.30;;
44120;SDS011;29783;52.504;13.478;2023-04-24T05:08:31;4.65;;;3.40;;
44120;SDS011;29783;52.504;13.478;2023-04-24T05:10:56;5.93;;;3.60;;
44120;SDS011;29783;52.504;13.478;2023-04-24T05:13:22;6.68;;;3.97;;
44120;SDS011;29783;52.504;13.478;2023-04-24T05:15:48;4.00;;;3.33;;
44120;SDS011;29783;52.504;13.478;2023-04-24T05:18:13;4.43;;;3.47;;
44120;SDS011;29783;52.504;13.478;2023-04-24T05:20:40;6.88;;;3.00;;
44120;SDS011;29783;52.504;13.478;2023-04-24T05:23:08;4.75;;;3.10;;
44120;SDS011;29783;52.504;13.478;2023-04-24T05:25:33;6.05;;;3.25;;
44120;SDS011;29783;52.504;13.478;2023-04-24T05:28:00;4.85;;;3.30;;
44120;SDS011;29783;52.504;13.478;2023-04-24T05:30:26;9.20;;;3.15;;
44120;SDS011;29783;52.504;13.478;2023-04-24T05:32:53;5.70;;;3.10;;
44120;SDS011;29783;52.504;13.478;2023-04-24T05:35:19;4.75;;;3.15;;
44120;SDS011;29783;52.504;13.478;2023-04-24T05:37:45;4.78;;;2.97;;
44120;SDS011;29783;52.504;13.478;2023-04-24T05:40:11;3.65;;;2.40;;
44120;SDS011;29783;52.504;13.478;2023-04-24T05:42:37;7.13;;;2.60;;
44120;SDS011;29783;52.504;13.478;2023-04-24T06:14:15;7.47;;;1.95;;
44120;SDS011;29783;52.504;13.478;2023-04-24T06:16:43;9.77;;;2.25;;
44120;SDS011;29783;52.504;13.478;2023-04-24T06:19:08;3.17;;;1.63;;
44120;SDS011;29783;52.504;13.478;2023-04-24T06:21:34;2.97;;;1.73;;
44120;SDS011;29783;52.504;13.478;2023-04-24T06:24:00;3.42;;;1.08;;
44120;SDS011;29783;52.504;13.478;2023-04-24T06:26:26;7.15;;;1.30;;
44120;SDS011;29783;52.504;13.478;2023-04-24T06:28:52;8.98;;;1.40;;
44120;SDS011;29783;52.504;13.478;2023-04-24T06:31:19;2.90;;;1.38;;
44120;SDS011;29783;52.504;13.478;2023-04-24T06:33:47;2.58;;;1.30;;
44120;SDS011;29783;52.504;13.478;2023-04-24T06:36:14;5.53;;;1.30;;
44120;SDS011;29783;52.504;13.478;2023-04-24T06:38:40;4.35;;;1.40;;
44120;SDS011;29783;52.504;13.478;2023-04-24T06:41:06;6.85;;;1.02;;
44120;SDS011;29783;52.504;13.478;2023-04-24T06:43:32;2.47;;;0.82;;
44120;SDS011;29783;52.504;13.478;2023-04-24T06:51:08;3.72;;;1.20;;
44120;SDS011;29783;52.504;13.478;2023-04-24T06:53:35;1.58;;;1.02;;
44120;SDS011;29783;52.504;13.478;2023-04-24T06:56:00;9.55;;;1.45;;
44120;SDS011;29783;52.504;13.478;2023-04-24T06:58:26;3.45;;;1.10;;
44120;SDS011;29783;52.504;13.478;2023-04-24T07:00:51;4.78;;;1.23;;
44120;SDS011;29783;52.504;13.478;2023-04-24T07:03:17;2.22;;;0.90;;
44120;SDS011;29783;52.504;13.478;2023-04-24T07:05:43;3.80;;;1.00;;
44120;SDS011;29783;52.504;13.478;2023-04-24T07:08:09;1.73;;;0.93;;
44120;SDS011;29783;52.504;13.478;2023-04-24T07:10:36;1.80;;;0.80;;
44120;SDS011;29783;52.504;13.478;2023-04-24T07:13:02;7.68;;;1.08;;
44120;SDS011;29783;52.504;13.478;2023-04-24T07:15:28;1.83;;;0.70;;
44120;SDS011;29783;52.504;13.478;2023-04-24T07:17:57;2.60;;;0.70;;
44120;SDS011;29783;52.504;13.478;2023-04-24T07:20:23;2.75;;;0.80;;
44120;SDS011;29783;52.504;13.478;2023-04-24T07:22:52;0.95;;;0.60;;
44120;SDS011;29783;52.504;13.478;2023-04-24T07:25:19;1.88;;;0.60;;
44120;SDS011;29783;52.504;13.478;2023-04-24T07:27:44;4.10;;;0.65;;
44120;SDS011;29783;52.504;13.478;2023-04-24T07:30:10;1.65;;;0.80;;
44120;SDS011;29783;52.504;13.478;2023-04-24T07:32:36;9.18;;;0.70;;
44120;SDS011;29783;52.504;13.478;2023-04-24T07:35:02;6.95;;;0.85;;
44120;SDS011;29783;52.504;13.478;2023-04-24T07:37:28;1.75;;;0.68;;
44120;SDS011;29783;52.504;13.478;2023-04-24T07:39:54;3.22;;;0.80;;
44120;SDS011;29783;52.504;13.478;2023-04-24T07:42:20;6.40;;;1.20;;
44120;SDS011;29783;52.504;13.478;2023-04-24T07:44:48;1.60;;;0.30;;
44120;SDS011;29783;52.504;13.478;2023-04-24T07:47:14;1.15;;;0.50;;
44120;SDS011;29783;52.504;13.478;2023-04-24T07:49:42;4.65;;;0.77;;
44120;SDS011;29783;52.504;13.478;2023-04-24T07:52:08;4.78;;;1.00;;
44120;SDS011;29783;52.504;13.478;2023-04-24T07:54:34;2.38;;;0.52;;
44120;SDS011;29783;52.504;13.478;2023-04-24T07:57:02;1.85;;;0.52;;
44120;SDS011;29783;52.504;13.478;2023-04-24T07:59:27;1.75;;;0.70;;
44120;SDS011;29783;52.504;13.478;2023-04-24T08:01:53;1.00;;;0.40;;
44120;SDS011;29783;52.504;13.478;2023-04-24T08:04:19;3.63;;;0.63;;
44120;SDS011;29783;52.504;13.478;2023-04-24T08:06:46;2.50;;;0.60;;
44120;SDS011;29783;52.504;13.478;2023-04-24T08:09:12;0.90;;;0.40;;
44120;SDS011;29783;52.504;13.478;2023-04-24T08:11:38;1.13;;;0.40;;
44120;SDS011;29783;52.504;13.478;2023-04-24T08:14:04;0.95;;;0.40;;
44120;SDS011;29783;52.504;13.478;2023-04-24T08:16:32;1.27;;;0.43;;
44120;SDS011;29783;52.504;13.478;2023-04-24T08:18:59;2.03;;;0.50;;
44120;SDS011;29783;52.504;13.478;2023-04-24T08:21:26;3.97;;;0.50;;
44120;SDS011;29783;52.504;13.478;2023-04-24T08:23:52;5.10;;;0.82;;
44120;SDS011;29783;52.504;13.478;2023-04-24T08:26:18;5.25;;;0.70;;
44120;SDS011;29783;52.504;13.478;2023-04-24T08:28:43;0.80;;;0.52;;
44120;SDS011;29783;52.504;13.478;2023-04-24T08:31:09;1.17;;;0.50;;
44120;SDS011;29783;52.504;13.478;2023-04-24T08:33:35;1.55;;;0.60;;
44120;SDS011;29783;52.504;13.478;2023-04-24T08:36:04;2.42;;;0.80;;
44120;SDS011;29783;52.504;13.478;2023-04-24T08:38:30;2.78;;;0.47;;
44120;SDS011;29783;52.504;13.478;2023-04-24T08:40:57;4.75;;;0.77;;
44120;SDS011;29783;52.504;13.478;2023-04-24T08:43:24;5.10;;;0.93;;
44120;SDS011;29783;52.504;13.478;2023-04-24T08:45:51;1.05;;;0.50;;
44120;SDS011;29783;52.504;13.478;2023-04-24T08:48:17;5.07;;;0.80;;
44120;SDS011;29783;52.504;13.478;2023-04-24T08:50:46;2.95;;;0.50;;
44120;SDS011;29783;52.504;13.478;2023-04-24T08:53:16;1.75;;;0.60;;
44120;SDS011;29783;52.504;13.478;2023-04-24T08:55:43;1.50;;;0.43;;
44120;SDS011;29783;52.504;13.478;2023-04-24T08:58:13;1.90;;;0.60;;
44120;SDS011;29783;52.504;13.478;2023-04-24T09:00:40;6.28;;;0.70;;
44120;SDS011;29783;52.504;13.478;2023-04-24T09:03:11;3.40;;;0.55;;
44120;SDS011;29783;52.504;13.478;2023-04-24T09:05:41;2.13;;;0.38;;
44120;SDS011;29783;52.504;13.478;2023-04-24T09:08:10;5.07;;;0.60;;
44120;SDS011;29783;52.504;13.478;2023-04-24T09:10:38;4.90;;;0.50;;
44120;SDS011;29783;52.504;13.478;2023-04-24T09:13:05;7.18;;;1.30;;
44120;SDS011;29783;52.504;13.478;2023-04-24T09:15:34;4.03;;;0.65;;
44120;SDS011;29783;52.504;13.478;2023-04-24T09:18:00;2.03;;;0.43;;
44120;SDS011;29783;52.504;13.478;2023-04-24T09:20:28;4.97;;;0.70;;
44120;SDS011;29783;52.504;13.478;2023-04-24T09:22:54;8.88;;;0.70;;
44120;SDS011;29783;52.504;13.478;2023-04-24T09:25:21;3.97;;;0.40;;
44120;SDS011;29783;52.504;13.478;2023-04-24T09:30:25;2.55;;;0.70;;
44120;SDS011;29783;52.504;13.478;2023-04-24T09:32:56;5.28;;;0.60;;
44120;SDS011;29783;52.504;13.478;2023-04-24T09:35:37;5.30;;;0.80;;
44120;SDS011;29783;52.504;13.478;2023-04-24T09:38:06;0.90;;;0.43;;
44120;SDS011;29783;52.504;13.478;2023-04-24T09:40:31;5.35;;;0.60;;
44120;SDS011;29783;52.504;13.478;2023-04-24T09:42:59;2.13;;;0.70;;
44120;SDS011;29783;52.504;13.478;2023-04-24T09:45:28;3.72;;;0.82;;
44120;SDS011;29783;52.504;13.478;2023-04-24T09:47:59;3.65;;;0.68;;
44120;SDS011;29783;52.504;13.478;2023-04-24T09:50:25;1.23;;;0.60;;
44120;SDS011;29783;52.504;13.478;2023-04-24T09:53:04;7.80;;;0.70;;
44120;SDS011;29783;52.504;13.478;2023-04-24T09:55:30;1.52;;;0.50;;
44120;SDS011;29783;52.504;13.478;2023-04-24T09:57:57;13.25;;;0.80;;
44120;SDS011;29783;52.504;13.478;2023-04-24T10:00:31;7.10;;;0.65;;
44120;SDS011;29783;52.504;13.478;2023-04-24T10:05:31;3.55;;;0.50;;
44120;SDS011;29783;52.504;13.478;2023-04-24T10:08:05;4.15;;;0.47;;
44120;SDS011;29783;52.504;13.478;2023-04-24T10:10:40;2.00;;;0.50;;
44120;SDS011;29783;52.504;13.478;2023-04-24T10:13:06;1.90;;;0.50;;
44120;SDS011;29783;52.504;13.478;2023-04-24T10:15:34;8.25;;;0.57;;
44120;SDS011;29783;52.504;13.478;2023-04-24T10:18:00;5.28;;;0.32;;
44120;SDS011;29783;52.504;13.478;2023-04-24T10:20:27;5.68;;;0.63;;
44120;SDS011;29783;52.504;13.478;2023-04-24T10:22:58;1.65;;;0.50;;
44120;SDS011;29783;52.504;13.478;2023-04-24T10:25:25;0.95;;;0.50;;
44120;SDS011;29783;52.504;13.478;2023-04-24T10:27:53;0.88;;;0.32;;
44120;SDS011;29783;52.504;13.478;2023-04-24T10:30:22;1.90;;;0.63;;
44120;SDS011;29783;52.504;13.478;2023-04-24T10:32:48;7.75;;;0.80;;
44120;SDS011;29783;52.504;13.478;2023-04-24T10:35:15;2.67;;;0.60;;
44120;SDS011;29783;52.504;13.478;2023-04-24T10:37:48;0.52;;;0.30;;
44120;SDS011;29783;52.504;13.478;2023-04-24T10:40:18;0.68;;;0.30;;
44120;SDS011;29783;52.504;13.478;2023-04-24T10:42:51;1.85;;;0.40;;
44120;SDS011;29783;52.504;13.478;2023-04-24T10:45:20;1.52;;;0.32;;
44120;SDS011;29783;52.504;13.478;2023-04-24T10:47:51;6.25;;;0.68;;
44120;SDS011;29783;52.504;13.478;2023-04-24T10:50:28;3.05;;;0.50;;
44120;SDS011;29783;52.504;13.478;2023-04-24T10:53:04;2.78;;;0.52;;
44120;SDS011;29783;52.504;13.478;2023-04-24T10:55:45;3.90;;;0.47;;
44120;SDS011;29783;52.504;13.478;2023-04-24T10:58:13;1.15;;;0.50;;
44120;SDS011;29783;52.504;13.478;2023-04-24T11:00:40;2.90;;;0.60;;
44120;SDS011;29783;52.504;13.478;2023-04-24T11:08:29;5.05;;;0.70;;
44120;SDS011;29783;52.504;13.478;2023-04-24T11:11:12;3.20;;;0.63;;
44120;SDS011;29783;52.504;13.478;2023-04-24T11:16:28;3.83;;;0.60;;
44120;SDS011;29783;52.504;13.478;2023-04-24T11:34:56;1.58;;;0.60;;
44120;SDS011;29783;52.504;13.478;2023-04-24T11:37:26;1.98;;;0.50;;
44120;SDS011;29783;52.504;13.478;2023-04-24T11:39:56;1.55;;;0.60;;
44120;SDS011;29783;52.504;13.478;2023-04-24T11:42:23;1.67;;;0.50;;
44120;SDS011;29783;52.504;13.478;2023-04-24T11:47:29;4.70;;;0.65;;
44120;SDS011;29783;52.504;13.478;2023-04-24T11:49:55;3.20;;;0.60;;
44120;SDS011;29783;52.504;13.478;2023-04-24T11:52:21;1.58;;;0.60;;
44120;SDS011;29783;52.504;13.478;2023-04-24T11:54:48;3.55;;;0.70;;
44120;SDS011;29783;52.504;13.478;2023-04-24T11:57:25;1.00;;;0.63;;
44120;SDS011;29783;52.504;13.478;2023-04-24T11:59:58;2.53;;;0.70;;
44120;SDS011;29783;52.504;13.478;2023-04-24T12:02:25;4.20;;;0.68;;
44120;SDS011;29783;52.504;13.478;2023-04-24T12:04:55;1.77;;;0.80;;
44120;SDS011;29783;52.504;13.478;2023-04-24T12:07:21;3.05;;;1.50;;
44120;SDS011;29783;52.504;13.478;2023-04-24T12:09:50;3.60;;;1.60;;
44120;SDS011;29783;52.504;13.478;2023-04-24T12:12:23;3.90;;;1.47;;
44120;SDS011;29783;52.504;13.478;2023-04-24T12:14:54;6.70;;;1.40;;
44120;SDS011;29783;52.504;13.478;2023-04-24T12:17:28;3.97;;;1.08;;
44120;SDS011;29783;52.504;13.478;2023-04-24T12:20:02;1.98;;;0.80;;
44120;SDS011;29783;52.504;13.478;2023-04-24T12:22:50;1.30;;;0.50;;
44120;SDS011;29783;52.504;13.478;2023-04-24T12:25:19;2.88;;;0.80;;
44120;SDS011;29783;52.504;13.478;2023-04-24T12:28:08;1.38;;;0.43;;
44120;SDS011;29783;52.504;13.478;2023-04-24T12:30:43;1.10;;;0.40;;
44120;SDS011;29783;52.504;13.478;2023-04-24T12:33:16;0.95;;;0.30;;
44120;SDS011;29783;52.504;13.478;2023-04-24T12:35:48;1.48;;;0.60;;
44120;SDS011;29783;52.504;13.478;2023-04-24T12:38:16;4.13;;;0.63;;
44120;SDS011;29783;52.504;13.478;2023-04-24T12:40:48;1.08;;;0.60;;
44120;SDS011;29783;52.504;13.478;2023-04-24T12:43:25;6.30;;;0.52;;
44120;SDS011;29783;52.504;13.478;2023-04-24T12:45:51;0.93;;;0.50;;
44120;SDS011;29783;52.504;13.478;2023-04-24T12:48:17;5.28;;;0.77;;
44120;SDS011;29783;52.504;13.478;2023-04-24T12:50:43;1.95;;;0.50;;
44120;SDS011;29783;52.504;13.478;2023-04-24T12:53:09;3.90;;;0.68;;
44120;SDS011;29783;52.504;13.478;2023-04-24T12:55:35;6.50;;;0.70;;
44120;SDS011;29783;52.504;13.478;2023-04-24T12:58:02;8.48;;;0.65;;
44120;SDS011;29783;52.504;13.478;2023-04-24T13:00:28;1.33;;;0.70;;
44120;SDS011;29783;52.504;13.478;2023-04-24T13:02:53;2.13;;;0.50;;
44120;SDS011;29783;52.504;13.478;2023-04-24T13:05:19;1.05;;;0.40;;
44120;SDS011;29783;52.504;13.478;2023-04-24T13:07:45;1.10;;;0.30;;
44120;SDS011;29783;52.504;13.478;2023-04-24T13:10:10;2.38;;;0.57;;
44120;SDS011;29783;52.504;13.478;2023-04-24T13:12:38;1.70;;;0.35;;
44120;SDS011;29783;52.504;13.478;2023-04-24T13:15:04;5.95;;;0.52;;
44120;SDS011;29783;52.504;13.478;2023-04-24T13:17:30;2.45;;;0.73;;
44120;SDS011;29783;52.504;13.478;2023-04-24T13:19:55;2.20;;;0.40;;
44120;SDS011;29783;52.504;13.478;2023-04-24T13:22:21;1.95;;;0.50;;
44120;SDS011;29783;52.504;13.478;2023-04-24T13:24:47;9.48;;;0.40;;
44120;SDS011;29783;52.504;13.478;2023-04-24T13:27:15;0.77;;;0.30;;
44120;SDS011;29783;52.504;13.478;2023-04-24T13:29:42;1.88;;;0.35;;
44120;SDS011;29783;52.504;13.478;2023-04-24T13:32:08;6.13;;;0.68;;
44120;SDS011;29783;52.504;13.478;2023-04-24T13:34:34;5.10;;;0.40;;
44120;SDS011;29783;52.504;13.478;2023-04-24T13:37:00;1.23;;;0.30;;
44120;SDS011;29783;52.504;13.478;2023-04-24T13:39:26;1.02;;;0.30;;
44120;SDS011;29783;52.504;13.478;2023-04-24T13:41:52;0.38;;;0.17;;
44120;SDS011;29783;52.504;13.478;2023-04-24T13:44:18;2.08;;;0.28;;
44120;SDS011;29783;52.504;13.478;2023-04-24T13:46:46;7.78;;;0.30;;
44120;SDS011;29783;52.504;13.478;2023-04-24T13:49:13;4.32;;;0.40;;
44120;SDS011;29783;52.504;13.478;2023-04-24T13:51:39;4.20;;;0.30;;
44120;SDS011;29783;52.504;13.478;2023-04-24T13:54:05;16.33;;;0.70;;
44120;SDS011;29783;52.504;13.478;2023-04-24T13:56:31;1.95;;;0.28;;
44120;SDS011;29783;52.504;13.478;2023-04-24T13:58:57;7.70;;;0.43;;
44120;SDS011;29783;52.504;13.478;2023-04-24T14:01:23;1.30;;;0.50;;
44120;SDS011;29783;52.504;13.478;2023-04-24T14:03:50;2.70;;;0.40;;
44120;SDS011;29783;52.504;13.478;2023-04-24T14:06:17;3.03;;;0.40;;
44120;SDS011;29783;52.504;13.478;2023-04-24T14:08:43;4.18;;;0.50;;
44120;SDS011;29783;52.504;13.478;2023-04-24T14:11:09;1.73;;;0.38;;
44120;SDS011;29783;52.504;13.478;2023-04-24T14:13:35;1.77;;;0.50;;
44120;SDS011;29783;52.504;13.478;2023-04-24T14:16:02;1.08;;;0.30;;
44120;SDS011;29783;52.504;13.478;2023-04-24T14:18:28;3.25;;;0.32;;
44120;SDS011;29783;52.504;13.478;2023-04-24T14:20:54;5.63;;;0.60;;
44120;SDS011;29783;52.504;13.478;2023-04-24T14:23:20;3.83;;;0.60;;
44120;SDS011;29783;52.504;13.478;2023-04-24T14:25:46;12.60;;;0.90;;
44120;SDS011;29783;52.504;13.478;2023-04-24T14:28:15;0.35;;;0.35;;
44120;SDS011;29783;52.504;13.478;2023-04-24T14:30:42;1.08;;;0.30;;
44120;SDS011;29783;52.504;13.478;2023-04-24T14:33:07;1.38;;;0.50;;
44120;SDS011;29783;52.504;13.478;2023-04-24T14:35:33;1.15;;;0.32;;
44120;SDS011;29783;52.504;13.478;2023-04-24T14:38:00;1.00;;;0.50;;
44120;SDS011;29783;52.504;13.478;2023-04-24T14:40:25;0.80;;;0.50;;
44120;SDS011;29783;52.504;13.478;2023-04-24T14:42:51;4.80;;;0.50;;
44120;SDS011;29783;52.504;13.478;2023-04-24T14:45:17;1.35;;;0.40;;
44120;SDS011;29783;52.504;13.478;2023-04-24T14:47:43;3.10;;;0.40;;
44120;SDS011;29783;52.504;13.478;2023-04-24T14:50:10;2.28;;;0.50;;
44120;SDS011;29783;52.504;13.478;2023-04-24T14:52:37;2.80;;;0.50;;
44120;SDS011;29783;52.504;13.478;2023-04-24T14:55:03;1.00;;;0.43;;
44120;SDS011;29783;52.504;13.478;2023-04-24T14:57:29;2.65;;;0.50;;
44120;SDS011;29783;52.504;13.478;2023-04-24T14:59:55;2.05;;;0.40;;
44120;SDS011;29783;52.504;13.478;2023-04-24T15:02:20;0.43;;;0.30;;
44120;SDS011;29783;52.504;13.478;2023-04-24T15:04:46;4.15;;;0.68;;
44120;SDS011;29783;52.504;13.478;2023-04-24T15:07:11;1.95;;;0.57;;
44120;SDS011;29783;52.504;13.478;2023-04-24T15:09:37;0.85;;;0.60;;
44120;SDS011;29783;52.504;13.478;2023-04-24T15:12:03;8.00;;;0.73;;
44120;SDS011;29783;52.504;13.478;2023-04-24T15:14:28;1.55;;;0.35;;
44120;SDS011;29783;52.504;13.478;2023-04-24T15:16:54;1.13;;;0.50;;
44120;SDS011;29783;52.504;13.478;2023-04-24T15:19:20;2.97;;;0.60;;
44120;SDS011;29783;52.504;13.478;2023-04-24T15:21:46;3.38;;;0.60;;
44120;SDS011;29783;52.504;13.478;2023-04-24T15:24:11;3.40;;;0.45;;
44120;SDS011;29783;52.504;13.478;2023-04-24T15:26:37;7.45;;;0.75;;
44120;SDS011;29783;52.504;13.478;2023-04-24T15:29:02;11.55;;;0.43;;
44120;SDS011;29783;52.504;13.478;2023-04-24T15:31:29;0.95;;;0.52;;
44120;SDS011;29783;52.504;13.478;2023-04-24T15:33:55;3.25;;;0.63;;
44120;SDS011;29783;52.504;13.478;2023-04-24T15:36:21;1.52;;;0.63;;
44120;SDS011;29783;52.504;13.478;2023-04-24T15:38:47;3.72;;;0.50;;
44120;SDS011;29783;52.504;13.478;2023-04-24T15:41:12;10.63;;;0.85;;
44120;SDS011;29783;52.504;13.478;2023-04-24T15:43:38;1.33;;;0.50;;
44120;SDS011;29783;52.504;13.478;2023-04-24T16:06:35;0.67;;;0.53;;
44120;SDS011;29783;52.504;13.478;2023-04-24T16:09:00;1.50;;;0.80;;
44120;SDS011;29783;52.504;13.478;2023-04-24T16:11:26;4.15;;;0.63;;
44120;SDS011;29783;52.504;13.478;2023-04-24T16:13:52;1.38;;;0.70;;
44120;SDS011;29783;52.504;13.478;2023-04-24T16:16:17;3.78;;;0.60;;
44120;SDS011;29783;52.504;13.478;2023-04-24T16:18:43;0.82;;;0.52;;
44120;SDS011;29783;52.504;13.478;2023-04-24T16:21:09;1.40;;;0.57;;
44120;SDS011;29783;52.504;13.478;2023-04-24T16:23:34;1.48;;;0.80;;
44120;SDS011;29783;52.504;13.478;2023-04-24T16:26:00;5.03;;;0.70;;
44120;SDS011;29783;52.504;13.478;2023-04-24T16:28:26;2.90;;;0.70;;
44120;SDS011;29783;52.504;13.478;2023-04-24T16:30:51;4.15;;;0.70;;
44120;SDS011;29783;52.504;13.478;2023-04-24T16:33:17;2.47;;;0.77;;
44120;SDS011;29783;52.504;13.478;2023-04-24T16:35:43;3.53;;;0.80;;
44120;SDS011;29783;52.504;13.478;2023-04-24T16:38:10;3.58;;;0.70;;
44120;SDS011;29783;52.504;13.478;2023-04-24T16:40:36;6.32;;;0.50;;
44120;SDS011;29783;52.504;13.478;2023-04-24T16:43:02;0.98;;;0.50;;
44120;SDS011;29783;52.504;13.478;2023-04-24T16:45:27;4.85;;;0.77;;
44120;SDS011;29783;52.504;13.478;2023-04-24T16:47:53;2.88;;;0.68;;
44120;SDS011;29783;52.504;13.478;2023-04-24T16:50:18;1.00;;;0.60;;
44120;SDS011;29783;52.504;13.478;2023-04-24T16:52:44;1.48;;;0.65;;
44120;SDS011;29783;52.504;13.478;2023-04-24T16:55:10;1.70;;;0.82;;
44120;SDS011;29783;52.504;13.478;2023-04-24T16:57:35;1.33;;;0.57;;
44120;SDS011;29783;52.504;13.478;2023-04-24T17:00:01;4.57;;;0.40;;
44120;SDS011;29783;52.504;13.478;2023-04-24T17:02:32;1.75;;;0.82;;
44120;SDS011;29783;52.504;13.478;2023-04-24T17:04:58;4.53;;;0.60;;
44120;SDS011;29783;52.504;13.478;2023-04-24T17:07:23;8.00;;;0.70;;
44120;SDS011;29783;52.504;13.478;2023-04-24T17:09:49;0.50;;;0.40;;
44120;SDS011;29783;52.504;13.478;2023-04-24T17:12:15;2.35;;;0.70;;
44120;SDS011;29783;52.504;13.478;2023-04-24T17:14:40;1.17;;;0.60;;
44120;SDS011;29783;52.504;13.478;2023-04-24T17:17:06;5.90;;;0.90;;
44120;SDS011;29783;52.504;13.478;2023-04-24T17:19:33;2.03;;;0.60;;
44120;SDS011;29783;52.504;13.478;2023-04-24T17:21:59;5.50;;;0.57;;
44120;SDS011;29783;52.504;13.478;2023-04-24T17:24:24;3.80;;;0.40;;
44120;SDS011;29783;52.504;13.478;2023-04-24T17:26:50;0.68;;;0.40;;
44120;SDS011;29783;52.504;13.478;2023-04-24T17:29:16;14.88;;;0.77;;
44120;SDS011;29783;52.504;13.478;2023-04-24T17:31:42;1.40;;;0.60;;
44120;SDS011;29783;52.504;13.478;2023-04-24T17:34:07;0.98;;;0.68;;
44120;SDS011;29783;52.504;13.478;2023-04-24T17:36:35;2.53;;;1.15;;
44120;SDS011;29783;52.504;13.478;2023-04-24T17:39:04;4.57;;;1.20;;
44120;SDS011;29783;52.504;13.478;2023-04-24T17:41:31;4.53;;;0.70;;
44120;SDS011;29783;52.504;13.478;2023-04-24T17:43:56;0.80;;;0.70;;
44120;SDS011;29783;52.504;13.478;2023-04-24T17:46:22;1.25;;;0.65;;
44120;SDS011;29783;52.504;13.478;2023-04-24T17:48:48;5.45;;;1.25;;
44120;SDS011;29783;52.504;13.478;2023-04-24T17:51:14;6.07;;;1.17;;
44120;SDS011;29783;52.504;13.478;2023-04-24T17:53:39;4.03;;;1.40;;
44120;SDS011;29783;52.504;13.478;2023-04-24T17:56:05;9.63;;;0.98;;
44120;SDS011;29783;52.504;13.478;2023-04-24T17:58:31;1.90;;;0.75;;
44120;SDS011;29783;52.504;13.478;2023-04-24T18:00:58;1.23;;;0.70;;
44120;SDS011;29783;52.504;13.478;2023-04-24T18:03:24;1.58;;;0.70;;
44120;SDS011;29783;52.504;13.478;2023-04-24T18:05:50;0.90;;;0.63;;
44120;SDS011;29783;52.504;13.478;2023-04-24T18:08:16;7.85;;;0.93;;
44120;SDS011;29783;52.504;13.478;2023-04-24T18:10:41;7.25;;;1.10;;
44120;SDS011;29783;52.504;13.478;2023-04-24T18:13:07;1.05;;;0.50;;
44120;SDS011;29783;52.504;13.478;2023-04-24T18:15:33;2.72;;;0.82;;
44120;SDS011;29783;52.504;13.478;2023-04-24T18:17:59;1.20;;;0.68;;
44120;SDS011;29783;52.504;13.478;2023-04-24T18:20:25;2.35;;;0.80;;